createdAt,value
2018-09-19T00:00:41.809Z,0.00
2018-09-19T00:01:41.988Z,0.00
2018-09-19T00:02:42.176Z,0.00
2018-09-19T00:03:42.350Z,0.00
2018-09-19T00:04:42.541Z,0.00
2018-09-19T00:06:42.886Z,0.00
2018-09-19T00:07:43.082Z,0.00
2018-09-19T00:08:43.246Z,0.00
2018-09-19T00:09:43.427Z,0.00
2018-09-19T00:10:43.648Z,0.00
2018-09-19T00:11:43.791Z,0.00
2018-09-19T00:12:43.973Z,0.00
2018-09-19T00:13:44.149Z,0.00
2018-09-19T00:14:44.336Z,0.00
2018-09-19T00:15:44.542Z,0.00
2018-09-19T00:16:44.714Z,0.00
2018-09-19T00:17:44.894Z,0.00
2018-09-19T00:18:45.073Z,0.00
2018-09-19T00:19:45.246Z,0.00
2018-09-19T00:20:45.412Z,0.00
2018-09-19T00:21:45.616Z,0.00
2018-09-19T00:22:45.776Z,0.00
2018-09-19T00:23:45.952Z,0.00
2018-09-19T00:24:46.132Z,0.00
2018-09-19T00:25:46.315Z,0.00
2018-09-19T00:26:46.545Z,0.00
2018-09-19T00:27:46.669Z,0.00
2018-09-19T00:28:46.847Z,0.00
2018-09-19T00:29:47.020Z,0.00
2018-09-19T00:30:47.206Z,0.00
2018-09-19T00:31:47.390Z,0.00
2018-09-19T00:32:47.574Z,0.00
2018-09-19T00:33:47.752Z,0.00
2018-09-19T00:34:47.941Z,0.00
2018-09-19T00:35:48.117Z,0.00
2018-09-19T00:36:48.289Z,0.00
2018-09-19T00:37:48.471Z,0.00
2018-09-19T00:38:48.655Z,0.00
2018-09-19T00:39:48.832Z,0.00
2018-09-19T00:40:49.006Z,0.00
2018-09-19T00:41:49.181Z,0.00
2018-09-19T00:42:49.364Z,0.00
2018-09-19T00:43:49.542Z,0.00
2018-09-19T00:44:49.723Z,0.00
2018-09-19T00:45:49.895Z,0.00
2018-09-19T00:46:50.069Z,0.00
2018-09-19T00:47:50.251Z,0.00
2018-09-19T00:48:50.431Z,0.00
2018-09-19T00:49:50.609Z,0.00
2018-09-19T00:50:50.798Z,0.00
2018-09-19T00:51:50.977Z,0.00
2018-09-19T00:52:51.155Z,0.00
2018-09-19T00:53:51.343Z,0.00
2018-09-19T00:54:51.525Z,0.00
2018-09-19T00:55:51.752Z,0.00
2018-09-19T00:56:51.882Z,0.00
2018-09-19T00:57:52.063Z,0.00
2018-09-19T00:58:52.244Z,0.00
2018-09-19T00:59:52.430Z,0.00
2018-09-19T01:00:52.612Z,0.00
2018-09-19T01:01:52.784Z,0.00
2018-09-19T01:02:52.963Z,0.00
2018-09-19T01:03:53.136Z,0.00
2018-09-19T01:04:53.319Z,0.00
2018-09-19T01:05:53.543Z,0.00
2018-09-19T01:06:53.686Z,0.00
2018-09-19T01:07:53.857Z,0.00
2018-09-19T01:08:54.040Z,0.00
2018-09-19T01:09:54.216Z,0.00
2018-09-19T01:10:54.402Z,0.00
2018-09-19T01:11:54.577Z,0.00
2018-09-19T01:12:54.763Z,0.00
2018-09-19T01:13:54.950Z,0.00
2018-09-19T01:14:55.125Z,0.00
2018-09-19T01:15:55.303Z,0.00
2018-09-19T01:16:55.490Z,0.00
2018-09-19T01:17:55.672Z,0.00
2018-09-19T01:18:55.848Z,0.00
2018-09-19T01:19:56.032Z,0.00
2018-09-19T01:20:56.278Z,0.00
2018-09-19T01:21:56.400Z,0.00
2018-09-19T01:22:56.578Z,0.00
2018-09-19T01:23:56.753Z,0.00
2018-09-19T01:24:56.931Z,0.00
2018-09-19T01:25:57.116Z,0.00
2018-09-19T01:26:57.291Z,0.00
2018-09-19T01:27:57.470Z,0.00
2018-09-19T01:28:57.656Z,0.00
2018-09-19T01:29:57.832Z,0.00
2018-09-19T01:30:58.029Z,0.00
2018-09-19T01:31:58.189Z,0.00
2018-09-19T01:32:58.373Z,0.00
2018-09-19T01:33:58.547Z,0.00
2018-09-19T01:34:58.730Z,0.00
2018-09-19T01:35:58.918Z,0.00
2018-09-19T01:36:59.087Z,0.00
2018-09-19T01:37:59.273Z,0.00
2018-09-19T01:38:59.460Z,0.00
2018-09-19T01:39:59.623Z,0.00
2018-09-19T01:40:59.805Z,0.00
2018-09-19T01:41:59.982Z,0.00
2018-09-19T01:43:00.164Z,0.00
2018-09-19T01:44:00.342Z,0.00
2018-09-19T01:45:00.523Z,0.00
2018-09-19T01:46:00.704Z,0.00
2018-09-19T01:47:00.888Z,0.00
2018-09-19T01:48:01.062Z,0.00
2018-09-19T01:49:01.241Z,0.00
2018-09-19T01:50:01.426Z,0.00
2018-09-19T01:51:01.603Z,0.00
2018-09-19T01:52:01.783Z,0.00
2018-09-19T01:53:01.968Z,0.00
2018-09-19T01:54:02.138Z,0.00
2018-09-19T01:55:02.322Z,0.00
2018-09-19T01:56:02.503Z,0.00
2018-09-19T01:57:02.680Z,0.00
2018-09-19T01:58:02.856Z,0.00
2018-09-19T01:59:03.042Z,0.00
2018-09-19T02:00:03.222Z,0.00
2018-09-19T02:01:03.399Z,0.00
2018-09-19T02:02:03.585Z,0.00
2018-09-19T02:03:03.758Z,0.00
2018-09-19T02:04:03.935Z,0.00
2018-09-19T02:05:04.119Z,0.00
2018-09-19T02:06:04.308Z,0.00
2018-09-19T02:07:04.491Z,0.00
2018-09-19T02:08:04.676Z,0.00
2018-09-19T02:09:04.848Z,0.00
2018-09-19T02:10:05.029Z,0.00
2018-09-19T02:11:05.216Z,0.00
2018-09-19T02:12:05.387Z,0.00
2018-09-19T02:13:05.603Z,0.00
2018-09-19T02:14:05.764Z,0.00
2018-09-19T02:15:05.942Z,0.00
2018-09-19T02:16:06.125Z,0.00
2018-09-19T02:17:06.303Z,0.00
2018-09-19T02:18:06.487Z,0.00
2018-09-19T02:19:06.663Z,0.00
2018-09-19T02:20:06.848Z,0.00
2018-09-19T02:21:07.033Z,0.00
2018-09-19T02:22:07.209Z,0.00
2018-09-19T02:23:07.382Z,0.00
2018-09-19T02:24:07.570Z,0.00
2018-09-19T02:25:07.743Z,0.00
2018-09-19T02:26:07.936Z,0.00
2018-09-19T02:27:08.106Z,0.00
2018-09-19T02:28:08.295Z,0.00
2018-09-19T02:29:08.453Z,0.00
2018-09-19T02:30:08.637Z,0.00
2018-09-19T02:31:08.823Z,0.00
2018-09-19T02:32:09.008Z,0.00
2018-09-19T02:33:09.145Z,0.00
2018-09-19T02:34:09.334Z,0.00
2018-09-19T02:35:09.504Z,0.00
2018-09-19T02:36:09.683Z,0.00
2018-09-19T02:37:09.870Z,0.00
2018-09-19T02:38:10.050Z,0.00
2018-09-19T02:39:10.241Z,0.00
2018-09-19T02:40:10.407Z,0.00
2018-09-19T02:41:10.580Z,0.00
2018-09-19T02:42:10.766Z,0.00
2018-09-19T02:43:10.932Z,0.00
2018-09-19T02:44:11.109Z,0.00
2018-09-19T02:45:11.293Z,0.00
2018-09-19T02:46:11.473Z,0.00
2018-09-19T02:47:11.653Z,0.00
2018-09-19T02:48:11.831Z,0.00
2018-09-19T02:49:12.003Z,0.00
2018-09-19T02:50:12.186Z,0.00
2018-09-19T02:51:12.370Z,0.00
2018-09-19T02:52:12.539Z,0.00
2018-09-19T02:53:12.735Z,0.00
2018-09-19T02:54:12.908Z,0.00
2018-09-19T02:55:13.163Z,0.00
2018-09-19T02:56:13.278Z,0.00
2018-09-19T02:57:13.450Z,0.00
2018-09-19T02:58:13.629Z,0.00
2018-09-19T02:59:13.808Z,0.00
2018-09-19T03:00:13.991Z,0.00
2018-09-19T03:01:14.161Z,0.00
2018-09-19T03:02:14.379Z,0.00
2018-09-19T03:03:14.519Z,0.00
2018-09-19T03:04:14.695Z,0.00
2018-09-19T03:05:14.872Z,0.00
2018-09-19T03:06:15.055Z,0.00
2018-09-19T03:07:15.231Z,0.00
2018-09-19T03:08:15.414Z,0.00
2018-09-19T03:09:15.590Z,0.00
2018-09-19T03:10:15.768Z,0.00
2018-09-19T03:11:15.942Z,0.00
2018-09-19T03:12:16.156Z,0.00
2018-09-19T03:13:16.304Z,0.00
2018-09-19T03:14:16.491Z,0.00
2018-09-19T03:15:16.679Z,0.00
2018-09-19T03:16:16.854Z,0.00
2018-09-19T03:17:17.175Z,0.00
2018-09-19T03:18:17.225Z,0.00
2018-09-19T03:19:17.391Z,0.00
2018-09-19T03:20:17.567Z,0.00
2018-09-19T03:21:17.745Z,0.00
2018-09-19T03:22:17.930Z,0.00
2018-09-19T03:23:18.109Z,0.00
2018-09-19T03:24:18.284Z,0.00
2018-09-19T03:25:18.453Z,0.00
2018-09-19T03:26:18.638Z,0.00
2018-09-19T03:27:18.812Z,0.00
2018-09-19T03:28:18.995Z,0.00
2018-09-19T03:29:19.172Z,0.00
2018-09-19T03:30:19.343Z,0.00
2018-09-19T03:31:19.535Z,0.00
2018-09-19T03:32:19.700Z,0.00
2018-09-19T03:33:19.883Z,0.00
2018-09-19T03:34:20.050Z,0.00
2018-09-19T03:35:20.279Z,0.00
2018-09-19T03:36:20.421Z,0.00
2018-09-19T03:37:20.587Z,0.00
2018-09-19T03:38:20.774Z,0.00
2018-09-19T03:39:20.939Z,0.00
2018-09-19T03:40:21.120Z,0.00
2018-09-19T03:41:21.300Z,0.00
2018-09-19T03:42:21.484Z,0.00
2018-09-19T03:43:21.660Z,0.00
2018-09-19T03:44:21.842Z,0.00
2018-09-19T03:45:22.029Z,0.00
2018-09-19T03:46:22.220Z,0.00
2018-09-19T03:47:22.384Z,0.00
2018-09-19T03:48:22.565Z,0.00
2018-09-19T03:49:22.741Z,0.00
2018-09-19T03:50:22.920Z,0.00
2018-09-19T03:51:23.100Z,0.00
2018-09-19T03:52:23.275Z,0.00
2018-09-19T03:53:23.461Z,0.00
2018-09-19T03:54:23.634Z,0.00
2018-09-19T03:55:23.825Z,0.00
2018-09-19T03:56:23.993Z,0.00
2018-09-19T03:57:24.180Z,0.00
2018-09-19T03:58:24.492Z,0.00
2018-09-19T03:59:24.533Z,0.00
2018-09-19T04:00:24.705Z,0.00
2018-09-19T04:01:24.886Z,0.00
2018-09-19T04:02:25.068Z,0.00
2018-09-19T04:03:25.239Z,0.00
2018-09-19T04:04:25.419Z,0.00
2018-09-19T04:05:25.597Z,0.00
2018-09-19T04:06:25.777Z,0.00
2018-09-19T04:07:25.955Z,0.00
2018-09-19T04:08:26.134Z,0.00
2018-09-19T04:09:26.316Z,0.00
2018-09-19T04:10:26.490Z,0.00
2018-09-19T04:11:26.683Z,0.00
2018-09-19T04:12:26.854Z,0.00
2018-09-19T04:13:27.034Z,0.00
2018-09-19T04:14:27.209Z,0.00
2018-09-19T04:15:27.385Z,0.00
2018-09-19T04:16:27.566Z,0.00
2018-09-19T04:17:27.741Z,0.00
2018-09-19T04:18:27.925Z,0.00
2018-09-19T04:19:28.105Z,0.00
2018-09-19T04:20:28.283Z,0.00
2018-09-19T04:21:28.468Z,0.00
2018-09-19T04:22:28.641Z,0.00
2018-09-19T04:23:28.820Z,0.00
2018-09-19T04:24:29.005Z,0.00
2018-09-19T04:25:29.187Z,0.00
2018-09-19T04:26:29.364Z,0.00
2018-09-19T04:27:29.547Z,0.00
2018-09-19T04:28:29.730Z,0.00
2018-09-19T04:29:29.899Z,4.00
2018-09-19T04:30:30.080Z,4.00
2018-09-19T04:31:30.267Z,0.00
2018-09-19T04:32:30.499Z,4.00
2018-09-19T04:33:30.617Z,4.00
2018-09-19T04:34:30.797Z,4.00
2018-09-19T04:35:30.978Z,8.00
2018-09-19T04:36:31.153Z,8.00
2018-09-19T04:37:31.333Z,8.00
2018-09-19T04:38:31.511Z,8.00
2018-09-19T04:39:31.692Z,8.00
2018-09-19T04:40:31.891Z,12.00
2018-09-19T04:41:32.053Z,12.00
2018-09-19T04:42:32.233Z,12.00
2018-09-19T04:43:32.415Z,16.00
2018-09-19T04:44:32.592Z,20.00
2018-09-19T04:45:32.775Z,20.00
2018-09-19T04:46:32.957Z,24.00
2018-09-19T04:47:33.124Z,24.00
2018-09-19T04:48:33.306Z,32.00
2018-09-19T04:49:33.479Z,32.00
2018-09-19T04:50:33.672Z,36.00
2018-09-19T04:51:33.871Z,40.00
2018-09-19T04:52:34.023Z,48.00
2018-09-19T04:53:34.199Z,52.00
2018-09-19T04:54:34.379Z,56.00
2018-09-19T04:55:34.562Z,68.00
2018-09-19T04:56:34.739Z,72.00
2018-09-19T04:57:34.932Z,84.00
2018-09-19T04:58:35.114Z,92.00
2018-09-19T04:59:35.280Z,100.00
2018-09-19T05:00:35.455Z,112.00
2018-09-19T05:01:35.644Z,124.00
2018-09-19T05:02:35.828Z,140.00
2018-09-19T05:03:35.996Z,160.00
2018-09-19T05:04:36.177Z,176.00
2018-09-19T05:05:36.358Z,196.00
2018-09-19T05:06:36.538Z,220.00
2018-09-19T05:07:36.718Z,244.00
2018-09-19T05:08:36.919Z,268.00
2018-09-19T05:09:37.069Z,292.00
2018-09-19T05:10:37.252Z,320.00
2018-09-19T05:11:37.431Z,344.00
2018-09-19T05:12:37.609Z,368.00
2018-09-19T05:13:37.790Z,400.00
2018-09-19T05:14:37.964Z,436.00
2018-09-19T05:15:38.153Z,472.00
2018-09-19T05:16:38.358Z,512.00
2018-09-19T05:17:38.532Z,560.00
2018-09-19T05:18:38.698Z,608.00
2018-09-19T05:19:38.870Z,664.00
2018-09-19T05:20:39.044Z,728.00
2018-09-19T05:21:39.228Z,800.00
2018-09-19T05:22:39.409Z,880.00
2018-09-19T05:23:39.585Z,952.00
2018-09-19T05:24:39.769Z,1028.00
2018-09-19T05:25:39.951Z,1112.00
2018-09-19T05:26:40.136Z,1196.00
2018-09-19T05:27:40.309Z,1284.00
2018-09-19T05:28:40.517Z,1372.00
2018-09-19T05:29:40.706Z,1456.00
2018-09-19T05:30:40.878Z,1540.00
2018-09-19T05:31:41.145Z,1624.00
2018-09-19T05:32:41.233Z,1712.00
2018-09-19T05:33:41.455Z,1808.00
2018-09-19T05:34:41.590Z,1924.00
2018-09-19T05:35:41.781Z,2052.00
2018-09-19T05:36:41.953Z,2176.00
2018-09-19T05:37:42.126Z,2284.00
2018-09-19T05:38:42.312Z,2384.00
2018-09-19T05:39:42.503Z,2480.00
2018-09-19T05:40:42.677Z,2572.00
2018-09-19T05:41:42.851Z,2660.00
2018-09-19T05:42:43.027Z,2744.00
2018-09-19T05:43:43.208Z,2804.00
2018-09-19T05:44:43.390Z,2884.00
2018-09-19T05:45:43.566Z,3024.00
2018-09-19T05:46:43.758Z,3172.00
2018-09-19T05:47:43.925Z,3212.00
2018-09-19T05:48:44.110Z,3176.00
2018-09-19T05:49:44.289Z,3188.00
2018-09-19T05:50:44.473Z,3228.00
2018-09-19T05:51:44.652Z,3248.00
2018-09-19T05:52:44.825Z,3292.00
2018-09-19T05:53:45.005Z,3384.00
2018-09-19T05:54:45.186Z,3216.00
2018-09-19T05:55:45.369Z,5320.00
2018-09-19T05:56:45.544Z,8336.00
2018-09-19T05:57:45.720Z,10392.00
2018-09-19T05:58:45.907Z,10148.00
2018-09-19T05:59:46.084Z,9028.00
2018-09-19T06:00:46.275Z,7276.00
2018-09-19T06:01:46.440Z,3532.00
2018-09-19T06:02:46.620Z,3312.00
2018-09-19T06:03:46.825Z,3344.00
2018-09-19T06:04:47.035Z,3400.00
2018-09-19T06:05:47.165Z,3468.00
2018-09-19T06:06:47.357Z,3560.00
2018-09-19T06:07:47.522Z,5956.00
2018-09-19T06:08:47.710Z,3836.00
2018-09-19T06:09:47.890Z,4732.00
2018-09-19T06:10:48.067Z,4392.00
2018-09-19T06:11:48.252Z,4520.00
2018-09-19T06:12:48.473Z,4528.00
2018-09-19T06:13:48.618Z,6276.00
2018-09-19T06:14:48.815Z,16224.00
2018-09-19T06:15:48.973Z,17056.00
2018-09-19T06:16:49.154Z,17184.00
2018-09-19T06:17:49.338Z,17408.00
2018-09-19T06:18:49.506Z,17728.00
2018-09-19T06:19:56.555Z,18336.00
2018-09-19T06:20:49.863Z,19008.00
2018-09-19T06:21:50.013Z,19328.00
2018-09-19T06:22:50.188Z,18656.00
2018-09-19T06:23:50.369Z,18208.00
2018-09-19T06:24:50.570Z,17152.00
2018-09-19T06:25:50.745Z,15424.00
2018-09-19T06:26:50.934Z,14880.00
2018-09-19T06:27:51.086Z,7236.00
2018-09-19T06:28:51.267Z,6856.00
2018-09-19T06:29:51.453Z,6132.00
2018-09-19T06:30:51.655Z,6900.00
2018-09-19T06:31:51.816Z,8920.00
2018-09-19T06:32:52.168Z,9288.00
2018-09-19T06:33:52.174Z,15520.00
2018-09-19T06:34:52.382Z,15840.00
2018-09-19T06:35:52.755Z,12960.00
2018-09-19T06:36:52.772Z,4844.00
2018-09-19T06:37:52.946Z,4624.00
2018-09-19T06:38:53.122Z,4516.00
2018-09-19T06:39:53.334Z,4540.00
2018-09-19T06:40:53.541Z,14080.00
2018-09-19T06:41:53.676Z,8916.00
2018-09-19T06:42:53.861Z,7360.00
2018-09-19T06:43:54.042Z,5224.00
2018-09-19T06:44:54.240Z,5276.00
2018-09-19T06:45:54.399Z,5440.00
2018-09-19T06:46:54.624Z,5636.00
2018-09-19T06:47:54.763Z,5820.00
2018-09-19T06:48:54.942Z,13180.00
2018-09-19T06:49:55.195Z,15680.00
2018-09-19T06:50:55.243Z,20128.00
2018-09-19T06:51:55.465Z,20992.00
2018-09-19T06:52:55.632Z,21344.00
2018-09-19T06:53:55.787Z,21184.00
2018-09-19T06:54:55.967Z,20992.00
2018-09-19T06:55:56.150Z,20480.00
2018-09-19T06:56:56.360Z,19040.00
2018-09-19T06:57:56.501Z,7544.00
2018-09-19T06:58:56.676Z,13356.00
2018-09-19T06:59:56.864Z,9384.00
2018-09-19T07:00:57.065Z,8052.00
2018-09-19T07:01:57.243Z,6280.00
2018-09-19T07:02:57.460Z,6276.00
2018-09-19T07:03:57.628Z,6356.00
2018-09-19T07:04:57.810Z,6484.00
2018-09-19T07:05:58.118Z,6524.00
2018-09-19T07:06:58.194Z,6660.00
2018-09-19T07:07:58.378Z,7432.00
2018-09-19T07:08:58.549Z,7424.00
2018-09-19T07:09:58.725Z,7612.00
2018-09-19T07:10:58.943Z,6460.00
2018-09-19T07:11:59.090Z,6276.00
2018-09-19T07:12:59.269Z,8156.00
2018-09-19T07:13:59.452Z,13532.00
2018-09-19T07:14:59.630Z,7336.00
2018-09-19T07:15:59.806Z,7220.00
2018-09-19T07:16:59.991Z,7764.00
2018-09-19T07:18:00.172Z,9352.00
2018-09-19T07:19:00.428Z,16416.00
2018-09-19T07:20:00.529Z,16064.00
2018-09-19T07:21:00.708Z,16000.00
2018-09-19T07:22:00.919Z,15936.00
2018-09-19T07:23:01.085Z,13800.00
2018-09-19T07:24:01.282Z,13800.00
2018-09-19T07:25:01.492Z,8456.00
2018-09-19T07:26:01.659Z,9564.00
2018-09-19T07:27:01.841Z,12940.00
2018-09-19T07:28:02.027Z,13472.00
2018-09-19T07:29:02.203Z,11712.00
2018-09-19T07:30:02.397Z,10168.00
2018-09-19T07:31:02.658Z,9704.00
2018-09-19T07:32:02.745Z,9372.00
2018-09-19T07:33:02.942Z,15264.00
2018-09-19T07:34:03.123Z,15220.00
2018-09-19T07:35:03.315Z,15104.00
2018-09-19T07:36:03.519Z,14932.00
2018-09-19T07:37:03.696Z,14984.00
2018-09-19T07:38:03.855Z,14976.00
2018-09-19T07:39:04.072Z,14992.00
2018-09-19T07:40:04.238Z,14936.00
2018-09-19T07:41:04.425Z,14952.00
2018-09-19T07:42:04.584Z,14448.00
2018-09-19T07:43:04.773Z,14556.00
2018-09-19T07:44:04.962Z,14904.00
2018-09-19T07:45:05.154Z,14800.00
2018-09-19T07:46:05.337Z,14828.00
2018-09-19T07:47:05.521Z,14840.00
2018-09-19T07:48:05.708Z,14780.00
2018-09-19T07:49:05.880Z,14724.00
2018-09-19T07:50:06.079Z,14684.00
2018-09-19T07:51:06.254Z,14744.00
2018-09-19T07:52:06.454Z,14720.00
2018-09-19T07:53:06.638Z,14764.00
2018-09-19T07:54:06.834Z,14716.00
2018-09-19T07:55:07.029Z,14612.00
2018-09-19T07:56:07.164Z,14716.00
2018-09-19T07:57:07.338Z,14648.00
2018-09-19T07:58:07.523Z,14044.00
2018-09-19T07:59:07.712Z,14444.00
2018-09-19T08:00:07.894Z,14544.00
2018-09-19T08:01:08.124Z,14644.00
2018-09-19T08:02:08.267Z,14620.00
2018-09-19T08:03:08.464Z,14548.00
2018-09-19T08:04:08.655Z,14556.00
2018-09-19T08:05:08.853Z,14608.00
2018-09-19T08:06:09.033Z,14692.00
2018-09-19T08:07:09.222Z,14716.00
2018-09-19T08:08:09.409Z,14768.00
2018-09-19T08:09:09.724Z,14792.00
2018-09-19T08:10:09.823Z,14768.00
2018-09-19T08:11:09.968Z,14776.00
2018-09-19T08:12:10.226Z,14744.00
2018-09-19T08:13:10.357Z,14708.00
2018-09-19T08:14:10.550Z,14700.00
2018-09-19T08:15:10.738Z,14732.00
2018-09-19T08:16:10.918Z,14704.00
2018-09-19T08:17:11.106Z,14628.00
2018-09-19T08:18:11.301Z,14616.00
2018-09-19T08:19:11.497Z,14584.00
2018-09-19T08:20:11.662Z,14596.00
2018-09-19T08:21:11.851Z,14428.00
2018-09-19T08:22:12.031Z,14568.00
2018-09-19T08:23:12.214Z,14604.00
2018-09-19T08:24:12.407Z,14672.00
2018-09-19T08:25:12.681Z,14688.00
2018-09-19T08:26:12.780Z,14620.00
2018-09-19T08:27:12.962Z,14564.00
2018-09-19T08:28:13.143Z,14584.00
2018-09-19T08:29:13.332Z,14508.00
2018-09-19T08:30:13.508Z,14476.00
2018-09-19T08:31:13.715Z,14436.00
2018-09-19T08:32:13.886Z,14408.00
2018-09-19T08:33:14.075Z,14400.00
2018-09-19T08:34:14.248Z,14556.00
2018-09-19T08:35:14.434Z,14444.00
2018-09-19T08:36:14.622Z,14372.00
2018-09-19T08:37:14.806Z,14292.00
2018-09-19T08:38:14.992Z,14192.00
2018-09-19T08:39:15.182Z,14224.00
2018-09-19T08:40:15.397Z,14236.00
2018-09-19T08:41:15.613Z,14340.00
2018-09-19T08:42:15.723Z,13764.00
2018-09-19T08:43:15.899Z,13380.00
2018-09-19T08:44:16.099Z,14036.00
2018-09-19T08:45:16.343Z,14292.00
2018-09-19T08:46:16.468Z,12936.00
2018-09-19T08:47:16.658Z,14024.00
2018-09-19T08:48:16.819Z,14024.00
2018-09-19T08:49:17.010Z,13956.00
2018-09-19T08:50:17.198Z,13988.00
2018-09-19T08:51:17.391Z,13980.00
2018-09-19T08:52:17.581Z,13880.00
2018-09-19T08:53:17.852Z,13856.00
2018-09-19T08:54:17.944Z,13584.00
2018-09-19T08:55:18.126Z,13280.00
2018-09-19T08:56:18.321Z,13748.00
2018-09-19T08:57:18.512Z,13840.00
2018-09-19T08:58:18.707Z,13908.00
2018-09-19T08:59:18.914Z,13992.00
2018-09-19T09:00:19.090Z,14040.00
2018-09-19T09:01:19.290Z,14064.00
2018-09-19T09:02:19.460Z,14012.00
2018-09-19T09:03:19.643Z,13964.00
2018-09-19T09:04:19.832Z,13864.00
2018-09-19T09:05:20.068Z,13648.00
2018-09-19T09:06:20.218Z,13540.00
2018-09-19T09:07:20.414Z,13620.00
2018-09-19T09:08:20.593Z,13428.00
2018-09-19T09:09:20.803Z,13392.00
2018-09-19T09:10:20.999Z,13488.00
2018-09-19T09:11:21.226Z,13496.00
2018-09-19T09:12:21.421Z,13480.00
2018-09-19T09:13:21.563Z,13436.00
2018-09-19T09:14:21.754Z,13340.00
2018-09-19T09:15:21.943Z,13372.00
2018-09-19T09:16:22.133Z,13240.00
2018-09-19T09:17:22.321Z,13344.00
2018-09-19T09:18:22.515Z,13348.00
2018-09-19T09:20:22.881Z,13272.00
2018-09-19T09:21:23.082Z,13224.00
2018-09-19T09:22:23.265Z,13116.00
2018-09-19T09:23:23.458Z,13124.00
2018-09-19T09:24:23.651Z,12908.00
2018-09-19T09:25:23.837Z,12996.00
2018-09-19T09:26:24.026Z,12872.00
2018-09-19T09:27:24.272Z,12980.00
2018-09-19T09:28:24.417Z,12836.00
2018-09-19T09:29:24.576Z,12900.00
2018-09-19T09:30:24.790Z,12860.00
2018-09-19T09:31:24.967Z,12812.00
2018-09-19T09:32:25.155Z,12648.00
2018-09-19T09:33:25.350Z,12544.00
2018-09-19T09:34:25.627Z,12420.00
2018-09-19T09:35:25.753Z,12284.00
2018-09-19T09:36:25.956Z,12372.00
2018-09-19T09:37:26.135Z,12304.00
2018-09-19T09:38:26.327Z,12168.00
2018-09-19T09:39:26.524Z,12236.00
2018-09-19T09:40:26.773Z,12236.00
2018-09-19T09:41:26.898Z,12180.00
2018-09-19T09:42:27.086Z,12116.00
2018-09-19T09:43:27.305Z,11980.00
2018-09-19T09:44:27.468Z,11880.00
2018-09-19T09:45:27.651Z,11892.00
2018-09-19T09:46:27.840Z,11800.00
2018-09-19T09:47:28.044Z,11672.00
2018-09-19T09:48:28.211Z,11720.00
2018-09-19T09:49:28.399Z,11744.00
2018-09-19T09:50:28.704Z,11800.00
2018-09-19T09:51:28.783Z,11784.00
2018-09-19T09:52:28.962Z,11716.00
2018-09-19T09:53:29.220Z,11732.00
2018-09-19T09:54:29.339Z,11664.00
2018-09-19T09:55:29.521Z,11668.00
2018-09-19T09:56:29.713Z,11508.00
2018-09-19T09:57:29.904Z,11560.00
2018-09-19T09:58:30.088Z,11488.00
2018-09-19T09:59:30.314Z,11476.00
2018-09-19T10:00:30.467Z,11352.00
2018-09-19T10:01:30.630Z,11344.00
2018-09-19T10:02:30.819Z,11380.00
2018-09-19T10:03:31.038Z,11308.00
2018-09-19T10:04:31.207Z,11320.00
2018-09-19T10:05:31.405Z,11288.00
2018-09-19T10:06:31.659Z,11260.00
2018-09-19T10:07:31.779Z,11184.00
2018-09-19T10:08:31.970Z,11088.00
2018-09-19T10:09:32.161Z,10840.00
2018-09-19T10:10:32.347Z,10868.00
2018-09-19T10:11:32.539Z,10760.00
2018-09-19T10:12:32.741Z,10660.00
2018-09-19T10:13:32.992Z,10604.00
2018-09-19T10:14:33.116Z,10688.00
2018-09-19T10:15:33.306Z,10660.00
2018-09-19T10:16:33.500Z,10476.00
2018-09-19T10:17:33.690Z,10424.00
2018-09-19T10:18:33.884Z,10504.00
2018-09-19T10:19:34.081Z,10348.00
2018-09-19T10:20:34.276Z,10360.00
2018-09-19T10:21:34.483Z,10256.00
2018-09-19T10:22:34.639Z,10124.00
2018-09-19T10:23:34.842Z,10044.00
2018-09-19T10:24:35.580Z,9836.00
2018-09-19T10:25:35.212Z,9716.00
2018-09-19T10:26:35.410Z,9628.00
2018-09-19T10:27:35.602Z,9648.00
2018-09-19T10:28:35.801Z,9668.00
2018-09-19T10:29:36.039Z,9600.00
2018-09-19T10:30:36.176Z,9376.00
2018-09-19T10:31:36.419Z,9384.00
2018-09-19T10:32:36.542Z,9236.00
2018-09-19T10:33:36.731Z,9120.00
2018-09-19T10:34:36.932Z,9176.00
2018-09-19T10:35:37.115Z,9080.00
2018-09-19T10:36:37.297Z,8972.00
2018-09-19T10:37:37.495Z,8988.00
2018-09-19T10:38:37.683Z,8908.00
2018-09-19T10:39:37.878Z,8828.00
2018-09-19T10:40:38.077Z,8668.00
2018-09-19T10:41:38.268Z,4612.00
2018-09-19T10:42:38.456Z,8628.00
2018-09-19T10:43:38.647Z,8756.00
2018-09-19T10:44:38.843Z,8748.00
2018-09-19T10:45:39.033Z,8800.00
2018-09-19T10:46:39.224Z,8936.00
2018-09-19T10:47:39.416Z,9048.00
2018-09-19T10:48:39.612Z,8856.00
2018-09-19T10:49:39.805Z,8820.00
2018-09-19T10:50:39.995Z,8916.00
2018-09-19T10:51:40.180Z,9088.00
2018-09-19T10:52:40.362Z,9028.00
2018-09-19T10:53:40.556Z,8856.00
2018-09-19T10:54:40.752Z,8680.00
2018-09-19T10:55:40.937Z,8564.00
2018-09-19T10:56:41.136Z,8464.00
2018-09-19T10:57:41.319Z,8292.00
2018-09-19T10:58:41.510Z,8320.00
2018-09-19T10:59:41.698Z,8300.00
2018-09-19T11:00:41.877Z,8200.00
2018-09-19T11:01:42.068Z,8040.00
2018-09-19T11:02:42.276Z,7944.00
2018-09-19T11:03:42.463Z,7780.00
2018-09-19T11:04:42.646Z,7776.00
2018-09-19T11:05:42.829Z,7780.00
2018-09-19T11:06:43.015Z,7180.00
2018-09-19T11:07:43.216Z,7800.00
2018-09-19T11:08:43.412Z,7844.00
2018-09-19T11:09:43.608Z,7876.00
2018-09-19T11:10:43.775Z,7920.00
2018-09-19T11:11:43.967Z,7124.00
2018-09-19T11:12:44.139Z,4700.00
2018-09-19T11:13:44.331Z,7752.00
2018-09-19T11:14:44.528Z,7876.00
2018-09-19T11:15:44.706Z,7888.00
2018-09-19T11:16:44.889Z,7628.00
2018-09-19T11:17:45.086Z,7536.00
2018-09-19T11:18:45.273Z,7460.00
2018-09-19T11:19:45.484Z,7416.00
2018-09-19T11:20:45.669Z,7360.00
2018-09-19T11:21:45.862Z,7312.00
2018-09-19T11:22:46.055Z,7216.00
2018-09-19T11:23:46.252Z,7104.00
2018-09-19T11:24:46.443Z,6996.00
2018-09-19T11:25:46.618Z,6948.00
2018-09-19T11:26:46.809Z,6892.00
2018-09-19T11:27:47.001Z,6884.00
2018-09-19T11:28:47.198Z,6868.00
2018-09-19T11:29:47.367Z,6784.00
2018-09-19T11:30:47.557Z,6696.00
2018-09-19T11:31:47.744Z,6656.00
2018-09-19T11:32:47.936Z,6696.00
2018-09-19T11:33:48.123Z,6796.00
2018-09-19T11:34:48.312Z,6588.00
2018-09-19T11:35:48.496Z,6500.00
2018-09-19T11:36:48.687Z,6396.00
2018-09-19T11:37:48.876Z,6304.00
2018-09-19T11:38:49.065Z,6328.00
2018-09-19T11:39:49.254Z,6256.00
2018-09-19T11:40:49.441Z,6216.00
2018-09-19T11:41:49.634Z,6132.00
2018-09-19T11:42:49.830Z,6096.00
2018-09-19T11:43:50.011Z,6052.00
2018-09-19T11:44:50.199Z,6096.00
2018-09-19T11:45:50.385Z,6096.00
2018-09-19T11:46:50.579Z,6116.00
2018-09-19T11:47:50.765Z,6080.00
2018-09-19T11:48:50.953Z,6040.00
2018-09-19T11:49:51.142Z,6020.00
2018-09-19T11:50:51.330Z,5952.00
2018-09-19T11:51:51.536Z,5932.00
2018-09-19T11:52:51.719Z,5796.00
2018-09-19T11:53:51.915Z,5808.00
2018-09-19T11:54:52.096Z,5780.00
2018-09-19T11:55:52.272Z,5804.00
2018-09-19T11:56:52.457Z,5832.00
2018-09-19T11:57:52.709Z,5772.00
2018-09-19T11:58:52.816Z,5832.00
2018-09-19T11:59:53.010Z,3652.00
2018-09-19T12:00:53.197Z,5840.00
2018-09-19T12:01:53.447Z,5956.00
2018-09-19T12:02:53.568Z,6020.00
2018-09-19T12:03:53.765Z,6088.00
2018-09-19T12:04:53.963Z,6172.00
2018-09-19T12:05:54.137Z,6280.00
2018-09-19T12:06:54.320Z,6436.00
2018-09-19T12:07:54.508Z,6536.00
2018-09-19T12:08:54.695Z,4368.00
2018-09-19T12:09:54.880Z,4292.00
2018-09-19T12:10:55.074Z,6264.00
2018-09-19T12:11:55.258Z,6288.00
2018-09-19T12:12:55.449Z,6104.00
2018-09-19T12:13:55.634Z,4764.00
2018-09-19T12:14:55.820Z,6428.00
2018-09-19T12:15:56.007Z,6500.00
2018-09-19T12:16:56.194Z,6332.00
2018-09-19T12:17:56.385Z,6116.00
2018-09-19T12:18:56.570Z,4540.00
2018-09-19T12:19:56.746Z,4932.00
2018-09-19T12:20:56.939Z,4076.00
2018-09-19T12:21:57.121Z,6028.00
2018-09-19T12:22:57.308Z,6124.00
2018-09-19T12:23:57.502Z,6128.00
2018-09-19T12:24:57.688Z,6188.00
2018-09-19T12:25:57.865Z,4208.00
2018-09-19T12:26:58.061Z,4060.00
2018-09-19T12:27:58.247Z,6036.00
2018-09-19T12:28:58.440Z,5968.00
2018-09-19T12:29:58.627Z,5912.00
2018-09-19T12:30:58.798Z,5724.00